Flight Track Log - Related Links

Times and Time Zones

All times are in EDT time to prevent confusion due to time zone crossing. See the SKW6345 flight status page for this flight to view local times or setup timezone preferences in your user account.

Time Position Orientation Groundspeed Altitude Reporting Facility
EDT Latitude Longitude Course Direction KTS MPH feet Rate Location/Type
Fri 04:22:25 PM 45.7464 -111.1253 290° West 193 222 5,800  Level Salt Lake Center
Fri 04:23:27 PM 45.7047 -111.1956 230° Southwest 240 276 8,000 2,177 Climbing Salt Lake Center
Fri 04:24:00 PM 45.7322 -111.5418 282° West  Level FlightAware Approximate
Fri 04:24:29 PM 45.7064 -111.2914 271° West 244 281 10,300  Level Salt Lake Center
Fri 04:25:00 PM 45.7478 -111.6982 288° West  Level FlightAware Approximate
Fri 04:25:31 PM 45.7217 -111.4203 280° West 260 299 12,200  Level Salt Lake Center
Fri 04:26:00 PM 45.7795 -111.8409 288° West  Level FlightAware Approximate
Fri 04:26:33 PM 45.7344 -111.5383 279° West 279 321 13,900  Level Salt Lake Center
Fri 04:27:00 PM 45.8124 -111.9830 290° West  Level FlightAware Approximate
Fri 04:27:35 PM 45.7483 -111.6628 279° West 306 352 15,400  Level Salt Lake Center
Fri 04:28:37 PM 45.7778 -111.7908 288° West 334 384 16,500 1,113 Climbing Salt Lake Center
Fri 04:29:39 PM 45.8072 -111.9242 288° West 348 400 17,700 1,258 Climbing Salt Lake Center
Fri 04:30:41 PM 45.8372 -112.0583 288° West 353 406 19,100 1,210 Climbing Salt Lake Center
Fri 04:31:43 PM 45.8428 -112.1958 273° West 360 414 20,200 1,161 Climbing Salt Lake Center
Fri 04:32:45 PM 45.7744 -112.3378 235° Southwest 361 415 21,500 1,161 Climbing Salt Lake Center
Fri 04:33:47 PM 45.7136 -112.4525 233° Southwest 363 418 22,600 919 Climbing Salt Lake Center
Fri 04:34:49 PM 45.6525 -112.5703 233° Southwest 367 422 23,400 726 Climbing Salt Lake Center
Fri 04:35:51 PM 45.5903 -112.6881 233° Southwest 370 426 24,100 774 Climbing Salt Lake Center
Fri 04:36:53 PM 45.5264 -112.8086 233° Southwest 380 437 25,000 726 Climbing Salt Lake Center
Fri 04:37:55 PM 45.4619 -112.9292 233° Southwest 384 442 25,600 581 Climbing Salt Lake Center
Fri 04:38:57 PM 45.3839 -113.0753 233° Southwest 387 445 26,200 581 Climbing Salt Lake Center
Fri 04:39:59 PM 45.3189 -113.1958 233° Southwest 394 453 26,800 484 Climbing Salt Lake Center
Fri 04:41:01 PM 45.2547 -113.3139 232° Southwest 396 456 27,200 484 Climbing Salt Lake Center
Fri 04:42:03 PM 45.1786 -113.4550 233° Southwest 402 463 27,800 484 Climbing Salt Lake Center
Fri 04:43:05 PM 45.1094 -113.5692 229° Southwest 399 459 28,200 339 Climbing Salt Lake Center
Fri 04:44:07 PM 45.0103 -113.6719 216° Southwest 396 456 28,500 484 Climbing Salt Lake Center
Fri 04:45:09 PM 44.9281 -113.7667 219° Southwest 398 458 29,200 581 Climbing Salt Lake Center
Fri 04:46:11 PM 44.8375 -113.8742 220° Southwest 384 442 29,700 484 Climbing Salt Lake Center
Fri 04:47:13 PM 44.7472 -113.9792 220° Southwest 385 443 30,200 339 Climbing Salt Lake Center
Fri 04:48:15 PM 44.6661 -114.0694 218° Southwest 388 447 30,400 194 Climbing Salt Lake Center
Fri 04:49:17 PM 44.5825 -114.1617 218° Southwest 396 456 30,600 290 Climbing Salt Lake Center
Fri 04:50:19 PM 44.4900 -114.2794 222° Southwest 402 463 31,000 387 Climbing Salt Lake Center
Fri 04:51:21 PM 44.4172 -114.3897 227° Southwest 403 464 31,400 387 Climbing Salt Lake Center
Fri 04:52:23 PM 44.3461 -114.5339 235° Southwest 405 466 31,800 290 Climbing Salt Lake Center
Fri 04:53:25 PM 44.2850 -114.6581 236° Southwest 405 466 32,000 97 Climbing Salt Lake Center
Fri 04:54:27 PM 44.2114 -114.8067 235° Southwest 411 473 32,000  Level Salt Lake Center
Fri 04:55:29 PM 44.1472 -114.9333 235° Southwest 415 478 32,000  Level Salt Lake Center
Fri 04:56:31 PM 44.0692 -115.0856 235° Southwest 426 490 32,000  Level Salt Lake Center
Fri 04:57:33 PM 44.0039 -115.2142 235° Southwest 423 487 32,000  Level Salt Lake Center
Fri 04:58:36 PM 43.9272 -115.3642 235° Southwest 422 486 32,000  Level Salt Lake Center
Fri 04:59:38 PM 43.8611 -115.4928 235° Southwest 426 490 32,000  Level Salt Lake Center
Fri 05:00:40 PM 43.7947 -115.6219 235° Southwest 425 489 32,000  Level Salt Lake Center
Fri 05:01:42 PM 43.7169 -115.7747 235° Southwest 433 498 32,000  Level Salt Lake Center
Fri 05:02:44 PM 43.6497 -115.9039 234° Southwest 432 497 32,000  Level Salt Lake Center
Fri 05:03:46 PM 43.5722 -116.0533 234° Southwest 428 493 32,000  Level Salt Lake Center
Fri 05:04:48 PM 43.5056 -116.1808 234° Southwest 427 491 32,000  Level Salt Lake Center
Fri 05:05:50 PM 43.4281 -116.3286 234° Southwest 424 488 32,000  Level Salt Lake Center
Fri 05:06:52 PM 43.3608 -116.4544 234° Southwest 426 490 32,000  Level Salt Lake Center
Fri 05:07:54 PM 43.2831 -116.5997 234° Southwest 421 484 32,000  Level Salt Lake Center
Fri 05:08:56 PM 43.2161 -116.7242 234° Southwest 422 486 32,000  Level Salt Lake Center
Fri 05:09:58 PM 43.1500 -116.8489 234° Southwest 423 487 32,000  Level Salt Lake Center
Fri 05:11:00 PM 43.0722 -116.9922 233° Southwest 420 483 32,000  Level Salt Lake Center
Fri 05:12:02 PM 43.0058 -117.1167 234° Southwest 424 488 32,000  Level Salt Lake Center
Fri 05:13:04 PM 42.9269 -117.2603 233° Southwest 423 487 32,000  Level Salt Lake Center
Fri 05:14:06 PM 42.8597 -117.3836 233° Southwest 423 487 32,000  Level Salt Lake Center
Fri 05:15:08 PM 42.7811 -117.5244 233° Southwest 420 483 32,000  Level Salt Lake Center
Fri 05:16:10 PM 42.7131 -117.6478 233° Southwest 425 489 32,000  Level Salt Lake Center
Fri 05:17:12 PM 42.6350 -117.7908 233° Southwest 424 488 32,000  Level Salt Lake Center
Fri 05:18:14 PM 42.5619 -117.9061 229° Southwest 420 483 32,000  Level Salt Lake Center
Fri 05:19:16 PM 42.4644 -118.0214 221° Southwest 414 476 32,000  Level Salt Lake Center
Fri 05:20:18 PM 42.3806 -118.1236 222° Southwest 424 488 32,000  Level Salt Lake Center
Fri 05:21:20 PM 42.2894 -118.2331 222° Southwest 414 476 32,000  Level Salt Lake Center
Fri 05:22:22 PM 42.2064 -118.3331 222° Southwest 417 480 32,000  Level Salt Lake Center
Fri 05:23:25 PM 42.1094 -118.4481 221° Southwest 414 476 32,000  Level Salt Lake Center
Fri 05:24:27 PM 42.0267 -118.5472 222° Southwest 416 479 32,000  Level Salt Lake Center
Fri 05:25:29 PM 41.9297 -118.6628 222° Southwest 417 480 32,000  Level Salt Lake Center
Fri 05:26:31 PM 41.8461 -118.7600 221° Southwest 417 480 32,000  Level Salt Lake Center
Fri 05:27:33 PM 41.7492 -118.8750 222° Southwest 417 480 32,000  Level Salt Lake Center
Fri 05:28:35 PM 41.6658 -118.9708 221° Southwest 416 479 32,000  Level Salt Lake Center
Fri 05:30:14 PM 41.5136 -119.1478 221° Southwest 414 476 32,000  Level Salt Lake Center
Fri 05:30:59 PM 41.4561 -119.2128 220° Southwest 418 481 32,000  Level Oakland Center
Fri 05:32:01 PM 41.3683 -119.3147 221° Southwest 419 482 32,000  Level Oakland Center
Fri 05:33:03 PM 41.2822 -119.4131 221° Southwest 412 474 32,000  Level Oakland Center
Fri 05:34:04 PM 41.1953 -119.5117 220° Southwest 411 473 32,000  Level Oakland Center
Fri 05:35:06 PM 41.1067 -119.6114 220° Southwest 414 476 32,000  Level Oakland Center
Fri 05:36:07 PM 41.0175 -119.7172 222° Southwest 408 470 32,000  Level Oakland Center
Fri 05:37:09 PM 40.9172 -119.8267 220° Southwest 411 473 32,000  Level Oakland Center
Fri 05:38:11 PM 40.8289 -119.9261 220° Southwest 417 480 32,000  Level Oakland Center
Fri 05:39:12 PM 40.7475 -120.0172 220° Southwest 397 457 32,000  Level Oakland Center
Fri 05:40:14 PM 40.6608 -120.1150 221° Southwest 404 465 32,000  Level Oakland Center
Fri 05:41:16 PM 40.5736 -120.2131 221° Southwest 407 468 32,000  Level Oakland Center
Fri 05:42:17 PM 40.4728 -120.3292 221° Southwest 406 467 32,000  Level Oakland Center
Fri 05:43:19 PM 40.3886 -120.4228 220° Southwest 401 461 32,000  Level Oakland Center
Fri 05:44:21 PM 40.3019 -120.5153 219° Southwest 402 463 32,000  Level Oakland Center
Fri 05:45:22 PM 40.2156 -120.6111 220° Southwest 406 467 32,000  Level Oakland Center
Fri 05:46:24 PM 40.1286 -120.7072 220° Southwest 408 470 32,000  Level Oakland Center
Fri 05:47:26 PM 40.0400 -120.8036 220° Southwest 412 474 32,000  Level Oakland Center
Fri 05:48:27 PM 39.9450 -120.9056 219° Southwest 409 471 32,000  Level Oakland Center
Fri 05:49:29 PM 39.8589 -121.0011 220° Southwest 406 467 32,000  Level Oakland Center
Fri 05:50:31 PM 39.7719 -121.0933 219° Southwest 404 465 32,000  Level Oakland Center
Fri 05:51:33 PM 39.6936 -121.2261 233° Southwest 417 480 32,000  Level Oakland Center
Fri 05:52:34 PM 39.6361 -121.3553 240° Southwest 413 475 32,000  Level Oakland Center
Fri 05:53:36 PM 39.5750 -121.4822 238° Southwest 415 478 32,000  Level Oakland Center
Fri 05:54:38 PM 39.5053 -121.5986 232° Southwest 410 472 32,000  Level Oakland Center
Fri 05:55:39 PM 39.4094 -121.6894 216° Southwest 408 470 32,000  Level Oakland Center
Fri 05:56:41 PM 39.3172 -121.7725 215° Southwest 405 466 32,000 -145 Level Oakland Center
Fri 05:57:43 PM 39.2258 -121.8564 215° Southwest 404 465 31,700 -976 Descending Oakland Center
Fri 05:58:44 PM 39.1328 -121.9392 215° Southwest 408 470 30,000 -1,854 Descending Oakland Center
Fri 05:59:46 PM 39.0281 -122.0333 215° Southwest 385 443 27,900 -1,839 Descending Oakland Center
Fri 06:00:48 PM 38.9442 -122.1078 215° Southwest 372 428 26,200 -1,659 Descending Oakland Center
Fri 06:01:49 PM 38.8592 -122.1833 215° Southwest 373 429 24,500 -1,659 Descending Oakland Center
Fri 06:02:51 PM 38.7756 -122.2581 215° Southwest 370 426 22,800 -1,645 Descending Oakland Center
Fri 06:03:53 PM 38.6956 -122.3306 215° Southwest 359 413 21,100 -1,694 Descending Oakland Center
Fri 06:04:55 PM 38.6131 -122.4019 214° Southwest 348 400 19,300 -1,707 Descending Oakland Center
Fri 06:05:56 PM 38.5350 -122.4714 215° Southwest 344 396 17,600 -1,659 Descending Oakland Center
Fri 06:06:58 PM 38.4578 -122.5389 214° Southwest 340 391 15,900 -1,790 Descending Oakland Center
Fri 06:08:00 PM 38.3669 -122.6172 214° Southwest 332 382 13,900 -1,805 Descending Oakland Center
Fri 06:09:01 PM 38.2922 -122.6825 214° Southwest 329 379 12,200 -1,463 Descending Oakland Center
Fri 06:10:03 PM 38.1986 -122.7019 189° South 358 412 10,900 -629 Descending Oakland Center
Fri 06:11:05 PM 38.1022 -122.6922 175° South 351 404 10,900  Level Oakland Center
Fri 06:12:06 PM 38.0069 -122.6828 176° South 347 399 10,900  Level Oakland Center
Fri 06:13:08 PM 37.9067 -122.6689 174° South 313 360 10,900  Level Oakland Center
Fri 06:14:09 PM 37.8519 -122.6194 144° Southeast 257 296 10,900 45 Level Oakland Center
Fri 06:15:20 PM 37.7833 -122.5500 141° Southeast 247 284 11,000 46 Climbing Northern Cal TRACON
Fri 06:16:20 PM 37.7333 -122.5000 142° Southeast 247 284 11,000  Level Northern Cal TRACON
Fri 06:17:20 PM 37.6833 -122.4333 133° Southeast 248 285 11,000  Level Northern Cal TRACON
Fri 06:18:20 PM 37.6167 -122.3833 149° Southeast 256 295 11,000 -513 Level Northern Cal TRACON
Fri 06:19:17 PM 37.5722 -122.3419 144° Southeast 247 284 10,000 -1,311 Descending Oakland Center
Fri 06:20:19 PM 37.5089 -122.3075 157° South 247 284 8,400 -1,500 Descending Oakland Center
Fri 06:21:21 PM 37.4525 -122.2614 147° Southeast 251 289 6,900 -1,220 Descending Oakland Center
Fri 06:22:22 PM 37.4600 -122.1831 83° East 239 275 5,900 -1,008 Descending Oakland Center
Fri 06:23:20 PM 37.5167 -122.1500 25° Northeast 201 231 4,900 -1,373 Descending Northern Cal TRACON
Fri 06:24:20 PM 37.5500 -122.2000 310° West 194 223 3,200 -1,400 Descending Northern Cal TRACON
Fri 06:25:20 PM 37.5667 -122.2667 288° West 184 212 2,100 -1,000 Descending Northern Cal TRACON
Fri 06:26:20 PM 37.5833 -122.3000 302° West 137 158 1,200 -850 Descending Northern Cal TRACON
Fri 06:27:20 PM 37.6000 -122.3333 302° West 130 150 400 -800 Descending Northern Cal TRACON

Login

Don't have an account? Register now (free) for customized features, flight alerts, and more!